sensor_id;sensor_type;location;lat;lon;timestamp;P1;P2;P0
68713;PMS7003;55690;51.566;19.198;2023-01-28T00:03:59;14;13;8
68713;PMS7003;55690;51.566;19.198;2023-01-28T00:08:06;16;11;7
68713;PMS7003;55690;51.566;19.198;2023-01-28T00:12:12;20;10;5
68713;PMS7003;55690;51.566;19.198;2023-01-28T00:16:18;30;18;8
68713;PMS7003;55690;51.566;19.198;2023-01-28T00:20:24;11;9;5
68713;PMS7003;55690;51.566;19.198;2023-01-28T00:24:30;16;9;7
68713;PMS7003;55690;51.566;19.198;2023-01-28T00:28:37;12;12;8
68713;PMS7003;55690;51.566;19.198;2023-01-28T00:32:43;13;10;6
68713;PMS7003;55690;51.566;19.198;2023-01-28T00:36:49;8;7;4
68713;PMS7003;55690;51.566;19.198;2023-01-28T00:45:12;5;4;3
68713;PMS7003;55690;51.566;19.198;2023-01-28T00:49:13;9;5;4
68713;PMS7003;55690;51.566;19.198;2023-01-28T00:53:14;8;5;2
68713;PMS7003;55690;51.566;19.198;2023-01-28T00:57:20;5;5;3
68713;PMS7003;55690;51.566;19.198;2023-01-28T01:01:26;12;11;6
68713;PMS7003;55690;51.566;19.198;2023-01-28T01:05:32;11;11;8
68713;PMS7003;55690;51.566;19.198;2023-01-28T01:09:38;11;10;7
68713;PMS7003;55690;51.566;19.198;2023-01-28T01:13:49;9;7;5
68713;PMS7003;55690;51.566;19.198;2023-01-28T01:17:52;11;10;7
68713;PMS7003;55690;51.566;19.198;2023-01-28T01:21:57;14;3;0
68713;PMS7003;55690;51.566;19.198;2023-01-28T01:26:04;11;8;6
68713;PMS7003;55690;51.566;19.198;2023-01-28T01:30:10;13;10;8
68713;PMS7003;55690;51.566;19.198;2023-01-28T01:34:16;6;5;3
68713;PMS7003;55690;51.566;19.198;2023-01-28T01:38:22;21;12;9
68713;PMS7003;55690;51.566;19.198;2023-01-28T01:42:29;10;10;8
68713;PMS7003;55690;51.566;19.198;2023-01-28T01:46:35;13;11;7
68713;PMS7003;55690;51.566;19.198;2023-01-28T01:50:46;24;11;7
68713;PMS7003;55690;51.566;19.198;2023-01-28T01:54:56;13;12;7
68713;PMS7003;55690;51.566;19.198;2023-01-28T01:59:02;17;9;7
68713;PMS7003;55690;51.566;19.198;2023-01-28T02:03:05;11;10;7
68713;PMS7003;55690;51.566;19.198;2023-01-28T02:07:08;20;10;8
68713;PMS7003;55690;51.566;19.198;2023-01-28T02:11:12;8;6;3
68713;PMS7003;55690;51.566;19.198;2023-01-28T02:15:18;7;6;5
68713;PMS7003;55690;51.566;19.198;2023-01-28T02:19:24;13;9;7
68713;PMS7003;55690;51.566;19.198;2023-01-28T02:27:51;9;8;2
68713;PMS7003;55690;51.566;19.198;2023-01-28T02:44:38;18;13;7
68713;PMS7003;55690;51.566;19.198;2023-01-28T02:48:40;6;5;4
68713;PMS7003;55690;51.566;19.198;2023-01-28T03:01:24;10;9;6
68713;PMS7003;55690;51.566;19.198;2023-01-28T03:09:53;14;9;7
68713;PMS7003;55690;51.566;19.198;2023-01-28T03:13:58;13;10;6
68713;PMS7003;55690;51.566;19.198;2023-01-28T03:18:14;10;8;6
68713;PMS7003;55690;51.566;19.198;2023-01-28T03:22:32;21;12;5
68713;PMS7003;55690;51.566;19.198;2023-01-28T03:31:15;14;7;4
68713;PMS7003;55690;51.566;19.198;2023-01-28T03:35:32;17;9;7
68713;PMS7003;55690;51.566;19.198;2023-01-28T03:39:47;8;5;2
68713;PMS7003;55690;51.566;19.198;2023-01-28T03:43:49;10;5;4
68713;PMS7003;55690;51.566;19.198;2023-01-28T03:47:51;12;10;7
68713;PMS7003;55690;51.566;19.198;2023-01-28T03:51:53;11;10;5
68713;PMS7003;55690;51.566;19.198;2023-01-28T03:55:54;17;6;5
68713;PMS7003;55690;51.566;19.198;2023-01-28T03:59:59;8;6;3
68713;PMS7003;55690;51.566;19.198;2023-01-28T04:04:00;16;8;5
68713;PMS7003;55690;51.566;19.198;2023-01-28T04:08:03;24;13;9
68713;PMS7003;55690;51.566;19.198;2023-01-28T04:12:05;14;7;4
68713;PMS7003;55690;51.566;19.198;2023-01-28T04:16:07;18;8;5
68713;PMS7003;55690;51.566;19.198;2023-01-28T04:20:09;11;10;7
68713;PMS7003;55690;51.566;19.198;2023-01-28T04:24:12;11;8;6
68713;PMS7003;55690;51.566;19.198;2023-01-28T04:28:13;9;7;3
68713;PMS7003;55690;51.566;19.198;2023-01-28T04:32:15;17;11;7
68713;PMS7003;55690;51.566;19.198;2023-01-28T04:36:16;9;5;4
68713;PMS7003;55690;51.566;19.198;2023-01-28T04:40:18;12;6;4
68713;PMS7003;55690;51.566;19.198;2023-01-28T04:44:19;15;12;8
68713;PMS7003;55690;51.566;19.198;2023-01-28T04:48:21;11;9;5
68713;PMS7003;55690;51.566;19.198;2023-01-28T04:52:22;17;9;6
68713;PMS7003;55690;51.566;19.198;2023-01-28T04:56:23;11;8;6
68713;PMS7003;55690;51.566;19.198;2023-01-28T05:00:25;13;6;5
68713;PMS7003;55690;51.566;19.198;2023-01-28T05:04:26;11;6;5
68713;PMS7003;55690;51.566;19.198;2023-01-28T05:08:28;19;9;7
68713;PMS7003;55690;51.566;19.198;2023-01-28T05:12:29;12;7;5
68713;PMS7003;55690;51.566;19.198;2023-01-28T05:16:33;8;5;3
68713;PMS7003;55690;51.566;19.198;2023-01-28T05:20:34;16;14;8
68713;PMS7003;55690;51.566;19.198;2023-01-28T05:24:36;10;9;5
68713;PMS7003;55690;51.566;19.198;2023-01-28T05:28:37;9;8;5
68713;PMS7003;55690;51.566;19.198;2023-01-28T05:32:39;6;6;4
68713;PMS7003;55690;51.566;19.198;2023-01-28T05:36:40;9;6;5
68713;PMS7003;55690;51.566;19.198;2023-01-28T05:40:42;16;6;4
68713;PMS7003;55690;51.566;19.198;2023-01-28T05:44:43;13;8;6
68713;PMS7003;55690;51.566;19.198;2023-01-28T05:48:45;14;9;3
68713;PMS7003;55690;51.566;19.198;2023-01-28T05:52:46;8;5;3
68713;PMS7003;55690;51.566;19.198;2023-01-28T05:56:51;2;2;2
68713;PMS7003;55690;51.566;19.198;2023-01-28T06:00:58;7;6;4
68713;PMS7003;55690;51.566;19.198;2023-01-28T06:05:04;15;3;1
68713;PMS7003;55690;51.566;19.198;2023-01-28T06:09:11;3;3;2
68713;PMS7003;55690;51.566;19.198;2023-01-28T06:13:16;8;3;2
68713;PMS7003;55690;51.566;19.198;2023-01-28T06:17:22;5;5;3
68713;PMS7003;55690;51.566;19.198;2023-01-28T06:21:28;8;6;4
68713;PMS7003;55690;51.566;19.198;2023-01-28T06:25:35;6;3;3
68713;PMS7003;55690;51.566;19.198;2023-01-28T06:29:41;8;4;3
68713;PMS7003;55690;51.566;19.198;2023-01-28T06:33:47;9;5;4
68713;PMS7003;55690;51.566;19.198;2023-01-28T06:37:53;9;4;3
68713;PMS7003;55690;51.566;19.198;2023-01-28T06:41:59;13;5;4
68713;PMS7003;55690;51.566;19.198;2023-01-28T06:46:06;10;6;3
68713;PMS7003;55690;51.566;19.198;2023-01-28T06:50:12;4;4;3
68713;PMS7003;55690;51.566;19.198;2023-01-28T06:54:18;5;4;3
68713;PMS7003;55690;51.566;19.198;2023-01-28T06:58:24;6;4;4
68713;PMS7003;55690;51.566;19.198;2023-01-28T07:02:30;6;5;4
68713;PMS7003;55690;51.566;19.198;2023-01-28T07:06:36;6;4;4
68713;PMS7003;55690;51.566;19.198;2023-01-28T07:10:43;6;5;2
68713;PMS7003;55690;51.566;19.198;2023-01-28T07:14:49;8;6;5
68713;PMS7003;55690;51.566;19.198;2023-01-28T07:18:55;11;6;4
68713;PMS7003;55690;51.566;19.198;2023-01-28T07:23:01;7;4;3
68713;PMS7003;55690;51.566;19.198;2023-01-28T07:27:07;6;5;2
68713;PMS7003;55690;51.566;19.198;2023-01-28T07:31:14;10;8;6
68713;PMS7003;55690;51.566;19.198;2023-01-28T07:35:20;5;4;4
68713;PMS7003;55690;51.566;19.198;2023-01-28T07:39:26;16;8;5
68713;PMS7003;55690;51.566;19.198;2023-01-28T07:43:32;13;4;2
68713;PMS7003;55690;51.566;19.198;2023-01-28T07:47:38;9;9;6
68713;PMS7003;55690;51.566;19.198;2023-01-28T07:51:44;13;9;5
68713;PMS7003;55690;51.566;19.198;2023-01-28T07:55:51;12;8;4
68713;PMS7003;55690;51.566;19.198;2023-01-28T07:59:57;24;7;5
68713;PMS7003;55690;51.566;19.198;2023-01-28T08:04:03;4;4;3
68713;PMS7003;55690;51.566;19.198;2023-01-28T08:08:09;8;6;5
68713;PMS7003;55690;51.566;19.198;2023-01-28T08:12:16;19;10;6
68713;PMS7003;55690;51.566;19.198;2023-01-28T08:16:22;13;9;6
68713;PMS7003;55690;51.566;19.198;2023-01-28T08:20:28;25;20;12
68713;PMS7003;55690;51.566;19.198;2023-01-28T08:24:34;22;10;6
68713;PMS7003;55690;51.566;19.198;2023-01-28T08:28:40;14;12;8
68713;PMS7003;55690;51.566;19.198;2023-01-28T08:32:46;25;13;7
68713;PMS7003;55690;51.566;19.198;2023-01-28T08:36:53;10;6;5
68713;PMS7003;55690;51.566;19.198;2023-01-28T08:40:59;14;10;6
68713;PMS7003;55690;51.566;19.198;2023-01-28T08:45:05;17;11;8
68713;PMS7003;55690;51.566;19.198;2023-01-28T08:49:11;11;9;7
68713;PMS7003;55690;51.566;19.198;2023-01-28T08:53:18;10;7;5
68713;PMS7003;55690;51.566;19.198;2023-01-28T08:57:23;20;13;9
68713;PMS7003;55690;51.566;19.198;2023-01-28T09:01:30;9;7;4
68713;PMS7003;55690;51.566;19.198;2023-01-28T09:05:36;12;8;5
68713;PMS7003;55690;51.566;19.198;2023-01-28T09:09:42;7;5;3
68713;PMS7003;55690;51.566;19.198;2023-01-28T09:13:48;9;6;5
68713;PMS7003;55690;51.566;19.198;2023-01-28T09:17:57;8;8;5
68713;PMS7003;55690;51.566;19.198;2023-01-28T09:22:02;12;6;3
68713;PMS7003;55690;51.566;19.198;2023-01-28T09:26:07;7;7;6
68713;PMS7003;55690;51.566;19.198;2023-01-28T09:30:13;11;8;6
68713;PMS7003;55690;51.566;19.198;2023-01-28T09:34:19;7;7;6
68713;PMS7003;55690;51.566;19.198;2023-01-28T09:38:25;18;12;8
68713;PMS7003;55690;51.566;19.198;2023-01-28T09:46:45;21;17;9
68713;PMS7003;55690;51.566;19.198;2023-01-28T09:50:50;12;8;7
68713;PMS7003;55690;51.566;19.198;2023-01-28T09:54:56;31;12;7
68713;PMS7003;55690;51.566;19.198;2023-01-28T09:59:21;15;9;8
68713;PMS7003;55690;51.566;19.198;2023-01-28T10:03:27;12;11;7
68713;PMS7003;55690;51.566;19.198;2023-01-28T10:07:39;7;2;2
68713;PMS7003;55690;51.566;19.198;2023-01-28T10:16:07;16;15;10
68713;PMS7003;55690;51.566;19.198;2023-01-28T10:20:23;19;13;9
68713;PMS7003;55690;51.566;19.198;2023-01-28T10:24:37;18;12;9
68713;PMS7003;55690;51.566;19.198;2023-01-28T10:28:44;13;10;6
68713;PMS7003;55690;51.566;19.198;2023-01-28T10:32:54;13;13;8
68713;PMS7003;55690;51.566;19.198;2023-01-28T10:37:01;11;11;5
68713;PMS7003;55690;51.566;19.198;2023-01-28T10:41:03;9;9;6
68713;PMS7003;55690;51.566;19.198;2023-01-28T10:45:14;9;9;5
68713;PMS7003;55690;51.566;19.198;2023-01-28T10:49:22;9;7;4
68713;PMS7003;55690;51.566;19.198;2023-01-28T10:53:34;9;8;6
68713;PMS7003;55690;51.566;19.198;2023-01-28T10:57:42;11;7;4
68713;PMS7003;55690;51.566;19.198;2023-01-28T11:05:54;14;7;5
68713;PMS7003;55690;51.566;19.198;2023-01-28T11:09:56;15;10;6
68713;PMS7003;55690;51.566;19.198;2023-01-28T11:13:58;8;8;4
68713;PMS7003;55690;51.566;19.198;2023-01-28T11:18:01;26;12;8
68713;PMS7003;55690;51.566;19.198;2023-01-28T11:22:13;9;7;5
68713;PMS7003;55690;51.566;19.198;2023-01-28T11:26:22;22;13;7
68713;PMS7003;55690;51.566;19.198;2023-01-28T11:30:33;12;5;3
68713;PMS7003;55690;51.566;19.198;2023-01-28T11:34:40;14;12;6
68713;PMS7003;55690;51.566;19.198;2023-01-28T11:43:00;8;8;6
68713;PMS7003;55690;51.566;19.198;2023-01-28T12:16:41;7;6;4
68713;PMS7003;55690;51.566;19.198;2023-01-28T12:20:51;13;7;5
68713;PMS7003;55690;51.566;19.198;2023-01-28T12:25:08;11;11;7
68713;PMS7003;55690;51.566;19.198;2023-01-28T12:42:06;9;4;3
68713;PMS7003;55690;51.566;19.198;2023-01-28T12:50:34;10;7;5
68713;PMS7003;55690;51.566;19.198;2023-01-28T12:54:49;13;10;6
68713;PMS7003;55690;51.566;19.198;2023-01-28T13:03:19;16;9;6
68713;PMS7003;55690;51.566;19.198;2023-01-28T13:07:28;21;11;5
68713;PMS7003;55690;51.566;19.198;2023-01-28T13:11:39;15;10;8
68713;PMS7003;55690;51.566;19.198;2023-01-28T13:15:41;21;17;12
68713;PMS7003;55690;51.566;19.198;2023-01-28T13:19:47;18;14;9
68713;PMS7003;55690;51.566;19.198;2023-01-28T13:23:49;10;8;6
68713;PMS7003;55690;51.566;19.198;2023-01-28T13:27:57;20;11;5
68713;PMS7003;55690;51.566;19.198;2023-01-28T13:32:01;21;14;5
68713;PMS7003;55690;51.566;19.198;2023-01-28T13:40:24;11;8;4
68713;PMS7003;55690;51.566;19.198;2023-01-28T13:44:28;10;9;8
68713;PMS7003;55690;51.566;19.198;2023-01-28T13:48:33;13;5;4
68713;PMS7003;55690;51.566;19.198;2023-01-28T13:52:44;7;7;6
68713;PMS7003;55690;51.566;19.198;2023-01-28T14:18:00;36;17;10
68713;PMS7003;55690;51.566;19.198;2023-01-28T14:22:08;8;8;6
68713;PMS7003;55690;51.566;19.198;2023-01-28T14:30:50;17;7;5
68713;PMS7003;55690;51.566;19.198;2023-01-28T14:34:41;4;4;2
68713;PMS7003;55690;51.566;19.198;2023-01-28T14:38:44;15;9;5
68713;PMS7003;55690;51.566;19.198;2023-01-28T14:42:47;20;13;5
68713;PMS7003;55690;51.566;19.198;2023-01-28T14:59:41;10;7;6
68713;PMS7003;55690;51.566;19.198;2023-01-28T15:03:46;7;7;4
68713;PMS7003;55690;51.566;19.198;2023-01-28T15:07:48;9;9;6
68713;PMS7003;55690;51.566;19.198;2023-01-28T15:11:51;15;11;7
68713;PMS7003;55690;51.566;19.198;2023-01-28T15:15:56;19;10;6
68713;PMS7003;55690;51.566;19.198;2023-01-28T15:20:01;22;12;9
68713;PMS7003;55690;51.566;19.198;2023-01-28T15:24:03;19;11;8
68713;PMS7003;55690;51.566;19.198;2023-01-28T15:28:08;13;11;6
68713;PMS7003;55690;51.566;19.198;2023-01-28T15:32:28;5;5;4
68713;PMS7003;55690;51.566;19.198;2023-01-28T15:36:30;11;8;7
68713;PMS7003;55690;51.566;19.198;2023-01-28T15:40:38;16;11;5
68713;PMS7003;55690;51.566;19.198;2023-01-28T15:44:44;16;12;8
68713;PMS7003;55690;51.566;19.198;2023-01-28T15:48:50;35;19;13
68713;PMS7003;55690;51.566;19.198;2023-01-28T15:52:59;25;12;8
68713;PMS7003;55690;51.566;19.198;2023-01-28T16:01:13;21;14;8
68713;PMS7003;55690;51.566;19.198;2023-01-28T16:09:30;15;9;6
68713;PMS7003;55690;51.566;19.198;2023-01-28T16:13:34;12;11;8
68713;PMS7003;55690;51.566;19.198;2023-01-28T16:17:46;21;14;8
68713;PMS7003;55690;51.566;19.198;2023-01-28T16:21:49;20;15;8
68713;PMS7003;55690;51.566;19.198;2023-01-28T16:30:03;16;14;7
68713;PMS7003;55690;51.566;19.198;2023-01-28T16:34:06;19;14;9
68713;PMS7003;55690;51.566;19.198;2023-01-28T16:38:10;17;11;7
68713;PMS7003;55690;51.566;19.198;2023-01-28T16:42:16;12;10;7
68713;PMS7003;55690;51.566;19.198;2023-01-28T16:46:19;22;14;9
68713;PMS7003;55690;51.566;19.198;2023-01-28T16:50:21;26;17;11
68713;PMS7003;55690;51.566;19.198;2023-01-28T16:54:22;17;12;7
68713;PMS7003;55690;51.566;19.198;2023-01-28T16:58:24;31;22;14
68713;PMS7003;55690;51.566;19.198;2023-01-28T17:02:27;8;8;6
68713;PMS7003;55690;51.566;19.198;2023-01-28T17:06:28;11;8;4
68713;PMS7003;55690;51.566;19.198;2023-01-28T17:10:30;19;10;7
68713;PMS7003;55690;51.566;19.198;2023-01-28T17:14:32;28;18;10
68713;PMS7003;55690;51.566;19.198;2023-01-28T17:18:33;17;13;7
68713;PMS7003;55690;51.566;19.198;2023-01-28T17:22:36;13;10;7
68713;PMS7003;55690;51.566;19.198;2023-01-28T17:26:37;23;16;9
68713;PMS7003;55690;51.566;19.198;2023-01-28T17:30:39;17;11;8
68713;PMS7003;55690;51.566;19.198;2023-01-28T17:34:41;11;10;5
68713;PMS7003;55690;51.566;19.198;2023-01-28T17:38:43;12;9;7
68713;PMS7003;55690;51.566;19.198;2023-01-28T17:42:45;29;20;12
68713;PMS7003;55690;51.566;19.198;2023-01-28T17:46:46;21;14;8
68713;PMS7003;55690;51.566;19.198;2023-01-28T17:50:48;19;11;7
68713;PMS7003;55690;51.566;19.198;2023-01-28T17:54:50;15;9;7
68713;PMS7003;55690;51.566;19.198;2023-01-28T17:58:55;23;19;13
68713;PMS7003;55690;51.566;19.198;2023-01-28T18:02:58;16;13;11
68713;PMS7003;55690;51.566;19.198;2023-01-28T18:06:59;30;17;10
68713;PMS7003;55690;51.566;19.198;2023-01-28T18:11:01;23;16;12
68713;PMS7003;55690;51.566;19.198;2023-01-28T18:15:07;26;20;12
68713;PMS7003;55690;51.566;19.198;2023-01-28T18:19:12;21;13;8
68713;PMS7003;55690;51.566;19.198;2023-01-28T18:23:19;23;18;10
68713;PMS7003;55690;51.566;19.198;2023-01-28T18:27:25;16;14;11
68713;PMS7003;55690;51.566;19.198;2023-01-28T18:31:31;10;10;4
68713;PMS7003;55690;51.566;19.198;2023-01-28T18:35:43;12;7;6
68713;PMS7003;55690;51.566;19.198;2023-01-28T18:39:46;10;8;6
68713;PMS7003;55690;51.566;19.198;2023-01-28T18:43:49;15;10;7
68713;PMS7003;55690;51.566;19.198;2023-01-28T18:47:56;25;21;12
68713;PMS7003;55690;51.566;19.198;2023-01-28T18:52:02;16;8;6
68713;PMS7003;55690;51.566;19.198;2023-01-28T18:56:08;21;19;11
68713;PMS7003;55690;51.566;19.198;2023-01-28T19:00:14;17;12;7
68713;PMS7003;55690;51.566;19.198;2023-01-28T19:04:20;19;14;10
68713;PMS7003;55690;51.566;19.198;2023-01-28T19:08:27;18;13;10
68713;PMS7003;55690;51.566;19.198;2023-01-28T19:12:33;15;12;7
68713;PMS7003;55690;51.566;19.198;2023-01-28T19:16:39;9;6;5
68713;PMS7003;55690;51.566;19.198;2023-01-28T19:20:45;16;8;4
68713;PMS7003;55690;51.566;19.198;2023-01-28T19:24:52;4;4;3
68713;PMS7003;55690;51.566;19.198;2023-01-28T19:28:58;10;6;5
68713;PMS7003;55690;51.566;19.198;2023-01-28T19:33:04;8;7;6
68713;PMS7003;55690;51.566;19.198;2023-01-28T19:37:10;8;8;6
68713;PMS7003;55690;51.566;19.198;2023-01-28T19:41:16;13;9;6
68713;PMS7003;55690;51.566;19.198;2023-01-28T19:45:22;14;9;6
68713;PMS7003;55690;51.566;19.198;2023-01-28T19:49:28;7;6;4
68713;PMS7003;55690;51.566;19.198;2023-01-28T19:53:35;6;5;3
68713;PMS7003;55690;51.566;19.198;2023-01-28T19:57:41;11;4;3
68713;PMS7003;55690;51.566;19.198;2023-01-28T20:01:47;6;6;4
68713;PMS7003;55690;51.566;19.198;2023-01-28T20:05:57;9;5;4
68713;PMS7003;55690;51.566;19.198;2023-01-28T20:09:59;11;8;6
68713;PMS7003;55690;51.566;19.198;2023-01-28T20:14:06;6;5;5
68713;PMS7003;55690;51.566;19.198;2023-01-28T20:18:12;11;9;6
68713;PMS7003;55690;51.566;19.198;2023-01-28T20:22:18;5;5;4
68713;PMS7003;55690;51.566;19.198;2023-01-28T20:26:28;8;5;4
68713;PMS7003;55690;51.566;19.198;2023-01-28T20:30:32;7;5;4
68713;PMS7003;55690;51.566;19.198;2023-01-28T20:34:36;9;9;6
68713;PMS7003;55690;51.566;19.198;2023-01-28T20:38:43;14;4;2
68713;PMS7003;55690;51.566;19.198;2023-01-28T20:42:49;10;6;3
68713;PMS7003;55690;51.566;19.198;2023-01-28T20:46:55;11;5;4
68713;PMS7003;55690;51.566;19.198;2023-01-28T20:51:08;3;3;3
68713;PMS7003;55690;51.566;19.198;2023-01-28T20:55:14;24;6;5
68713;PMS7003;55690;51.566;19.198;2023-01-28T20:59:16;5;2;2
68713;PMS7003;55690;51.566;19.198;2023-01-28T21:03:20;7;3;3
68713;PMS7003;55690;51.566;19.198;2023-01-28T21:07:26;5;5;2
68713;PMS7003;55690;51.566;19.198;2023-01-28T21:11:32;5;1;1
68713;PMS7003;55690;51.566;19.198;2023-01-28T21:15:38;3;3;2
68713;PMS7003;55690;51.566;19.198;2023-01-28T21:19:44;2;2;2
68713;PMS7003;55690;51.566;19.198;2023-01-28T21:23:51;2;2;1
68713;PMS7003;55690;51.566;19.198;2023-01-28T21:27:58;2;2;2
68713;PMS7003;55690;51.566;19.198;2023-01-28T21:32:03;10;5;4
68713;PMS7003;55690;51.566;19.198;2023-01-28T21:36:10;6;4;3
68713;PMS7003;55690;51.566;19.198;2023-01-28T21:40:16;5;4;3
68713;PMS7003;55690;51.566;19.198;2023-01-28T21:44:22;6;6;4
68713;PMS7003;55690;51.566;19.198;2023-01-28T21:48:28;2;2;2
68713;PMS7003;55690;51.566;19.198;2023-01-28T21:52:34;9;4;2
68713;PMS7003;55690;51.566;19.198;2023-01-28T21:56:41;8;2;1
68713;PMS7003;55690;51.566;19.198;2023-01-28T22:00:46;3;3;2
68713;PMS7003;55690;51.566;19.198;2023-01-28T22:04:53;7;3;2
68713;PMS7003;55690;51.566;19.198;2023-01-28T22:08:59;4;4;2
68713;PMS7003;55690;51.566;19.198;2023-01-28T22:13:05;0;0;0
68713;PMS7003;55690;51.566;19.198;2023-01-28T22:17:11;8;3;1
68713;PMS7003;55690;51.566;19.198;2023-01-28T22:21:17;2;2;1
68713;PMS7003;55690;51.566;19.198;2023-01-28T22:25:23;3;2;1
68713;PMS7003;55690;51.566;19.198;2023-01-28T22:29:30;2;2;2
68713;PMS7003;55690;51.566;19.198;2023-01-28T22:33:36;1;1;1
68713;PMS7003;55690;51.566;19.198;2023-01-28T22:37:42;1;1;1
68713;PMS7003;55690;51.566;19.198;2023-01-28T22:41:48;7;1;1
68713;PMS7003;55690;51.566;19.198;2023-01-28T22:45:58;3;2;1
68713;PMS7003;55690;51.566;19.198;2023-01-28T22:50:01;2;1;1
68713;PMS7003;55690;51.566;19.198;2023-01-28T22:54:08;5;1;1
68713;PMS7003;55690;51.566;19.198;2023-01-28T22:58:13;4;1;1
68713;PMS7003;55690;51.566;19.198;2023-01-28T23:02:19;5;2;0
68713;PMS7003;55690;51.566;19.198;2023-01-28T23:06:26;0;0;0
68713;PMS7003;55690;51.566;19.198;2023-01-28T23:10:32;0;0;0
68713;PMS7003;55690;51.566;19.198;2023-01-28T23:14:38;4;1;1
68713;PMS7003;55690;51.566;19.198;2023-01-28T23:18:51;3;1;1
68713;PMS7003;55690;51.566;19.198;2023-01-28T23:23:07;1;1;1
68713;PMS7003;55690;51.566;19.198;2023-01-28T23:27:26;5;3;1
68713;PMS7003;55690;51.566;19.198;2023-01-28T23:31:28;8;1;1
68713;PMS7003;55690;51.566;19.198;2023-01-28T23:35:29;0;0;0
68713;PMS7003;55690;51.566;19.198;2023-01-28T23:39:32;1;1;1
68713;PMS7003;55690;51.566;19.198;2023-01-28T23:43:34;1;1;0
68713;PMS7003;55690;51.566;19.198;2023-01-28T23:47:36;1;1;1
68713;PMS7003;55690;51.566;19.198;2023-01-28T23:51:37;2;1;1
68713;PMS7003;55690;51.566;19.198;2023-01-28T23:55:40;6;3;3
68713;PMS7003;55690;51.566;19.198;2023-01-28T23:59:46;1;1;1
